Meriden, New Hampshire
Current Conditions -  °F | °C
As of 1:01 PM on Thursday 23 Oct 2014 (Local Time) from KLEB Reporting Station
Light Rain Light Rain  
Wind Chill: 47°   Ceiling: 100
Heat Index: 49°   Visibility: 9mi
Dew Point: 46°   Wind: 6mph
Humidity: 90%   Direction: 350°N
Pressure: 29.8"   Gusts: NA
Location:  43.54°N, 72.25°W
Report Text: KLEB 231701Z 35005KT 9SM -RA BKN001 OVC008 09/08 A2980 RMK AO2 P0000 T00940078
Loading
Personal Weather Stations






























Interactive Weather Map
Tropical Storm Tracking
New forecast layout! Learn more

10-Day Weather Forecast

Advertisements
Track Severe Weather on mobile